sensor_id;sensor_type;location;lat;lon;timestamp;pressure;altitude;pressure_sealevel;temperature;humidity
68117;BME280;54909;54.464;18.498;2024-01-15T00:00:51;0;;;1.54;90
68117;BME280;54909;54.464;18.498;2024-01-15T00:03:53;0;;;1.46;90
68117;BME280;54909;54.464;18.498;2024-01-15T00:06:54;0;;;1.36;89
68117;BME280;54909;54.464;18.498;2024-01-15T00:10:02;0;;;1.31;89
68117;BME280;54909;54.464;18.498;2024-01-15T00:13:03;0;;;1.30;89
68117;BME280;54909;54.464;18.498;2024-01-15T00:16:05;0;;;1.33;89
68117;BME280;54909;54.464;18.498;2024-01-15T00:19:11;0;;;1.36;89
68117;BME280;54909;54.464;18.498;2024-01-15T00:22:12;0;;;1.14;88
68117;BME280;54909;54.464;18.498;2024-01-15T00:25:13;0;;;1.37;89
68117;BME280;54909;54.464;18.498;2024-01-15T00:28:20;0;;;1.41;89
68117;BME280;54909;54.464;18.498;2024-01-15T00:31:22;0;;;1.46;88
68117;BME280;54909;54.464;18.498;2024-01-15T00:34:23;0;;;1.51;88
68117;BME280;54909;54.464;18.498;2024-01-15T00:37:30;0;;;1.44;88
68117;BME280;54909;54.464;18.498;2024-01-15T00:40:31;0;;;1.52;88
68117;BME280;54909;54.464;18.498;2024-01-15T00:43:32;0;;;1.47;88
68117;BME280;54909;54.464;18.498;2024-01-15T00:46:45;0;;;1.47;88
68117;BME280;54909;54.464;18.498;2024-01-15T00:49:47;0;;;1.50;89
68117;BME280;54909;54.464;18.498;2024-01-15T00:52:48;0;;;1.48;88
68117;BME280;54909;54.464;18.498;2024-01-15T00:55:49;0;;;1.51;88
68117;BME280;54909;54.464;18.498;2024-01-15T00:58:50;0;;;1.52;88
68117;BME280;54909;54.464;18.498;2024-01-15T01:01:52;0;;;1.45;88
68117;BME280;54909;54.464;18.498;2024-01-15T01:04:58;0;;;1.48;87
68117;BME280;54909;54.464;18.498;2024-01-15T01:08:00;0;;;1.46;88
68117;BME280;54909;54.464;18.498;2024-01-15T01:11:01;0;;;1.51;87
68117;BME280;54909;54.464;18.498;2024-01-15T01:14:08;0;;;1.47;87
68117;BME280;54909;54.464;18.498;2024-01-15T01:17:09;0;;;1.48;87
68117;BME280;54909;54.464;18.498;2024-01-15T01:20:10;0;;;1.39;87
68117;BME280;54909;54.464;18.498;2024-01-15T01:23:17;0;;;1.37;86
68117;BME280;54909;54.464;18.498;2024-01-15T01:26:18;0;;;1.38;87
68117;BME280;54909;54.464;18.498;2024-01-15T01:29:19;0;;;1.44;87
68117;BME280;54909;54.464;18.498;2024-01-15T01:32:27;0;;;1.46;87
68117;BME280;54909;54.464;18.498;2024-01-15T01:35:28;0;;;1.53;87
68117;BME280;54909;54.464;18.498;2024-01-15T01:38:29;0;;;1.53;87
68117;BME280;54909;54.464;18.498;2024-01-15T01:41:39;0;;;1.50;86
68117;BME280;54909;54.464;18.498;2024-01-15T01:44:41;0;;;1.53;86
68117;BME280;54909;54.464;18.498;2024-01-15T01:47:42;0;;;1.45;86
68117;BME280;54909;54.464;18.498;2024-01-15T01:50:46;0;;;1.49;86
68117;BME280;54909;54.464;18.498;2024-01-15T01:53:47;0;;;1.50;87
68117;BME280;54909;54.464;18.498;2024-01-15T01:56:51;0;;;1.55;87
68117;BME280;54909;54.464;18.498;2024-01-15T01:59:55;0;;;1.50;87
68117;BME280;54909;54.464;18.498;2024-01-15T02:02:57;0;;;1.55;87
68117;BME280;54909;54.464;18.498;2024-01-15T02:06:00;0;;;1.47;88
68117;BME280;54909;54.464;18.498;2024-01-15T02:09:05;0;;;1.47;89
68117;BME280;54909;54.464;18.498;2024-01-15T02:12:07;0;;;1.44;90
68117;BME280;54909;54.464;18.498;2024-01-15T02:15:08;0;;;1.38;90
68117;BME280;54909;54.464;18.498;2024-01-15T02:18:14;0;;;1.39;90
68117;BME280;54909;54.464;18.498;2024-01-15T02:21:15;0;;;1.32;90
68117;BME280;54909;54.464;18.498;2024-01-15T02:24:17;0;;;1.34;91
68117;BME280;54909;54.464;18.498;2024-01-15T02:27:24;0;;;1.36;91
68117;BME280;54909;54.464;18.498;2024-01-15T02:30:25;0;;;1.33;90
68117;BME280;54909;54.464;18.498;2024-01-15T02:33:28;0;;;1.34;91
68117;BME280;54909;54.464;18.498;2024-01-15T02:36:33;0;;;1.30;91
68117;BME280;54909;54.464;18.498;2024-01-15T02:39:34;0;;;1.31;91
68117;BME280;54909;54.464;18.498;2024-01-15T02:42:35;0;;;1.26;91
68117;BME280;54909;54.464;18.498;2024-01-15T02:45:42;0;;;1.24;92
68117;BME280;54909;54.464;18.498;2024-01-15T02:48:44;0;;;1.24;92
68117;BME280;54909;54.464;18.498;2024-01-15T02:51:45;0;;;1.23;92
68117;BME280;54909;54.464;18.498;2024-01-15T02:54:52;0;;;1.18;92
68117;BME280;54909;54.464;18.498;2024-01-15T02:57:53;0;;;1.20;92
68117;BME280;54909;54.464;18.498;2024-01-15T03:00:55;0;;;1.21;92
68117;BME280;54909;54.464;18.498;2024-01-15T03:04:01;0;;;1.23;92
68117;BME280;54909;54.464;18.498;2024-01-15T03:07:03;0;;;1.25;92
68117;BME280;54909;54.464;18.498;2024-01-15T03:10:06;0;;;1.25;92
68117;BME280;54909;54.464;18.498;2024-01-15T03:13:11;0;;;1.23;92
68117;BME280;54909;54.464;18.498;2024-01-15T03:16:12;0;;;1.17;93
68117;BME280;54909;54.464;18.498;2024-01-15T03:19:13;0;;;1.14;93
68117;BME280;54909;54.464;18.498;2024-01-15T03:22:20;0;;;1.12;94
68117;BME280;54909;54.464;18.498;2024-01-15T03:25:22;0;;;1.09;94
68117;BME280;54909;54.464;18.498;2024-01-15T03:28:23;0;;;1.07;94
68117;BME280;54909;54.464;18.498;2024-01-15T03:31:30;0;;;1.08;94
68117;BME280;54909;54.464;18.498;2024-01-15T03:34:31;0;;;1.08;94
68117;BME280;54909;54.464;18.498;2024-01-15T03:37:32;0;;;1.12;94
68117;BME280;54909;54.464;18.498;2024-01-15T03:40:40;0;;;1.12;94
68117;BME280;54909;54.464;18.498;2024-01-15T03:43:41;0;;;1.13;94
68117;BME280;54909;54.464;18.498;2024-01-15T03:46:42;0;;;1.08;94
68117;BME280;54909;54.464;18.498;2024-01-15T03:49:49;0;;;1.06;95
68117;BME280;54909;54.464;18.498;2024-01-15T03:52:50;0;;;1.05;95
68117;BME280;54909;54.464;18.498;2024-01-15T03:55:52;0;;;1.06;95
68117;BME280;54909;54.464;18.498;2024-01-15T03:58:58;0;;;0.99;95
68117;BME280;54909;54.464;18.498;2024-01-15T04:01:59;0;;;1.06;95
68117;BME280;54909;54.464;18.498;2024-01-15T04:05:01;0;;;1.04;95
68117;BME280;54909;54.464;18.498;2024-01-15T04:08:08;0;;;1.08;95
68117;BME280;54909;54.464;18.498;2024-01-15T04:11:09;0;;;1.07;95
68117;BME280;54909;54.464;18.498;2024-01-15T04:14:10;0;;;1.08;95
68117;BME280;54909;54.464;18.498;2024-01-15T04:17:17;0;;;1.09;95
68117;BME280;54909;54.464;18.498;2024-01-15T04:20:19;0;;;1.06;95
68117;BME280;54909;54.464;18.498;2024-01-15T04:23:20;0;;;1.09;95
68117;BME280;54909;54.464;18.498;2024-01-15T04:26:27;0;;;1.05;95
68117;BME280;54909;54.464;18.498;2024-01-15T04:29:28;0;;;1.04;95
68117;BME280;54909;54.464;18.498;2024-01-15T04:32:29;0;;;1.05;95
68117;BME280;54909;54.464;18.498;2024-01-15T04:35:37;0;;;1.09;95
68117;BME280;54909;54.464;18.498;2024-01-15T04:38:39;0;;;1.06;95
68117;BME280;54909;54.464;18.498;2024-01-15T04:41:40;0;;;1.06;96
68117;BME280;54909;54.464;18.498;2024-01-15T04:44:46;0;;;1.06;96
68117;BME280;54909;54.464;18.498;2024-01-15T04:47:47;0;;;1.05;96
68117;BME280;54909;54.464;18.498;2024-01-15T04:50:48;0;;;1.01;96
68117;BME280;54909;54.464;18.498;2024-01-15T04:53:55;0;;;1.05;96
68117;BME280;54909;54.464;18.498;2024-01-15T04:56:56;0;;;0.99;96
68117;BME280;54909;54.464;18.498;2024-01-15T04:59:58;0;;;1.01;96
68117;BME280;54909;54.464;18.498;2024-01-15T05:03:05;0;;;1.08;96
68117;BME280;54909;54.464;18.498;2024-01-15T05:06:07;0;;;1.12;96
68117;BME280;54909;54.464;18.498;2024-01-15T05:09:08;0;;;1.11;95
68117;BME280;54909;54.464;18.498;2024-01-15T05:12:14;0;;;1.05;95
68117;BME280;54909;54.464;18.498;2024-01-15T05:15:15;0;;;1.07;95
68117;BME280;54909;54.464;18.498;2024-01-15T05:18:17;0;;;0.97;95
68117;BME280;54909;54.464;18.498;2024-01-15T05:21:24;0;;;1.00;95
68117;BME280;54909;54.464;18.498;2024-01-15T05:24:25;0;;;0.99;94
68117;BME280;54909;54.464;18.498;2024-01-15T05:27:27;0;;;0.94;94
68117;BME280;54909;54.464;18.498;2024-01-15T05:30:33;0;;;0.95;93
68117;BME280;54909;54.464;18.498;2024-01-15T05:33:34;0;;;0.90;93
68117;BME280;54909;54.464;18.498;2024-01-15T05:36:36;0;;;0.90;93
68117;BME280;54909;54.464;18.498;2024-01-15T05:39:43;0;;;0.82;90
68117;BME280;54909;54.464;18.498;2024-01-15T05:42:44;0;;;0.79;90
68117;BME280;54909;54.464;18.498;2024-01-15T05:45:46;0;;;0.79;90
68117;BME280;54909;54.464;18.498;2024-01-15T05:48:52;0;;;0.70;91
68117;BME280;54909;54.464;18.498;2024-01-15T05:51:53;0;;;0.63;91
68117;BME280;54909;54.464;18.498;2024-01-15T05:54:55;0;;;0.56;91
68117;BME280;54909;54.464;18.498;2024-01-15T05:58:02;0;;;0.52;91
68117;BME280;54909;54.464;18.498;2024-01-15T06:01:03;0;;;0.42;90
68117;BME280;54909;54.464;18.498;2024-01-15T06:04:05;0;;;0.42;90
68117;BME280;54909;54.464;18.498;2024-01-15T06:07:11;0;;;0.39;90
68117;BME280;54909;54.464;18.498;2024-01-15T06:10:12;0;;;0.36;90
68117;BME280;54909;54.464;18.498;2024-01-15T06:13:14;0;;;0.33;89
68117;BME280;54909;54.464;18.498;2024-01-15T06:16:21;0;;;0.26;89
68117;BME280;54909;54.464;18.498;2024-01-15T06:19:23;0;;;0.23;89
68117;BME280;54909;54.464;18.498;2024-01-15T06:22:24;0;;;0.23;89
68117;BME280;54909;54.464;18.498;2024-01-15T06:25:30;0;;;0.25;89
68117;BME280;54909;54.464;18.498;2024-01-15T06:28:31;0;;;0.33;89
68117;BME280;54909;54.464;18.498;2024-01-15T06:31:33;0;;;0.26;89
68117;BME280;54909;54.464;18.498;2024-01-15T06:34:40;0;;;0.35;89
68117;BME280;54909;54.464;18.498;2024-01-15T06:37:41;0;;;0.39;89
68117;BME280;54909;54.464;18.498;2024-01-15T06:40:43;0;;;0.43;89
68117;BME280;54909;54.464;18.498;2024-01-15T06:43:50;0;;;0.46;89
68117;BME280;54909;54.464;18.498;2024-01-15T06:46:52;0;;;0.49;89
68117;BME280;54909;54.464;18.498;2024-01-15T06:49:57;0;;;0.57;89
68117;BME280;54909;54.464;18.498;2024-01-15T06:53:00;0;;;0.53;89
68117;BME280;54909;54.464;18.498;2024-01-15T06:56:01;0;;;0.47;90
68117;BME280;54909;54.464;18.498;2024-01-15T06:59:02;0;;;0.46;90
68117;BME280;54909;54.464;18.498;2024-01-15T07:02:09;0;;;0.40;90
68117;BME280;54909;54.464;18.498;2024-01-15T07:05:11;0;;;0.41;90
68117;BME280;54909;54.464;18.498;2024-01-15T07:08:13;0;;;0.45;90
68117;BME280;54909;54.464;18.498;2024-01-15T07:11:19;0;;;0.50;90
68117;BME280;54909;54.464;18.498;2024-01-15T07:14:20;0;;;0.56;90
68117;BME280;54909;54.464;18.498;2024-01-15T07:17:22;0;;;0.56;90
68117;BME280;54909;54.464;18.498;2024-01-15T07:20:30;0;;;0.57;91
68117;BME280;54909;54.464;18.498;2024-01-15T07:23:32;0;;;0.61;91
68117;BME280;54909;54.464;18.498;2024-01-15T07:26:33;0;;;0.58;91
68117;BME280;54909;54.464;18.498;2024-01-15T07:29:41;0;;;0.57;91
68117;BME280;54909;54.464;18.498;2024-01-15T07:32:44;0;;;0.51;92
68117;BME280;54909;54.464;18.498;2024-01-15T07:35:45;0;;;0.52;92
68117;BME280;54909;54.464;18.498;2024-01-15T07:38:50;0;;;0.53;92
68117;BME280;54909;54.464;18.498;2024-01-15T07:41:52;0;;;0.47;92
68117;BME280;54909;54.464;18.498;2024-01-15T07:44:53;0;;;0.54;91
68117;BME280;54909;54.464;18.498;2024-01-15T07:48:00;0;;;0.56;91
68117;BME280;54909;54.464;18.498;2024-01-15T07:51:01;0;;;0.59;92
68117;BME280;54909;54.464;18.498;2024-01-15T07:54:04;0;;;0.69;91
68117;BME280;54909;54.464;18.498;2024-01-15T07:57:11;0;;;0.77;91
68117;BME280;54909;54.464;18.498;2024-01-15T08:00:13;0;;;0.85;91
68117;BME280;54909;54.464;18.498;2024-01-15T08:03:14;0;;;0.95;90
68117;BME280;54909;54.464;18.498;2024-01-15T08:06:20;0;;;0.96;90
68117;BME280;54909;54.464;18.498;2024-01-15T08:09:22;0;;;1.06;89
68117;BME280;54909;54.464;18.498;2024-01-15T08:12:23;0;;;1.10;88
68117;BME280;54909;54.464;18.498;2024-01-15T08:15:30;0;;;1.09;89
68117;BME280;54909;54.464;18.498;2024-01-15T08:18:31;0;;;1.10;89
68117;BME280;54909;54.464;18.498;2024-01-15T08:21:32;0;;;1.10;88
68117;BME280;54909;54.464;18.498;2024-01-15T08:24:39;0;;;1.05;89
68117;BME280;54909;54.464;18.498;2024-01-15T08:27:41;0;;;1.14;88
68117;BME280;54909;54.464;18.498;2024-01-15T08:30:43;0;;;1.15;87
68117;BME280;54909;54.464;18.498;2024-01-15T08:33:49;0;;;1.14;87
68117;BME280;54909;54.464;18.498;2024-01-15T08:36:50;0;;;1.15;87
68117;BME280;54909;54.464;18.498;2024-01-15T08:39:52;0;;;1.19;87
68117;BME280;54909;54.464;18.498;2024-01-15T08:42:59;0;;;1.33;87
68117;BME280;54909;54.464;18.498;2024-01-15T08:46:00;0;;;1.37;87
68117;BME280;54909;54.464;18.498;2024-01-15T08:49:02;0;;;1.37;88
68117;BME280;54909;54.464;18.498;2024-01-15T08:52:08;0;;;1.30;89
68117;BME280;54909;54.464;18.498;2024-01-15T08:55:10;0;;;1.21;90
68117;BME280;54909;54.464;18.498;2024-01-15T08:58:11;0;;;1.08;91
68117;BME280;54909;54.464;18.498;2024-01-15T09:01:18;0;;;0.98;92
68117;BME280;54909;54.464;18.498;2024-01-15T09:04:20;0;;;0.99;93
68117;BME280;54909;54.464;18.498;2024-01-15T09:07:21;0;;;0.91;93
68117;BME280;54909;54.464;18.498;2024-01-15T09:10:27;0;;;0.85;92
68117;BME280;54909;54.464;18.498;2024-01-15T09:13:29;0;;;0.85;92
68117;BME280;54909;54.464;18.498;2024-01-15T09:16:30;0;;;0.79;91
68117;BME280;54909;54.464;18.498;2024-01-15T09:19:37;0;;;0.78;91
68117;BME280;54909;54.464;18.498;2024-01-15T09:22:40;0;;;0.82;89
68117;BME280;54909;54.464;18.498;2024-01-15T09:25:43;0;;;0.83;90
68117;BME280;54909;54.464;18.498;2024-01-15T09:28:46;0;;;0.96;88
68117;BME280;54909;54.464;18.498;2024-01-15T09:31:48;0;;;1.20;87
68117;BME280;54909;54.464;18.498;2024-01-15T09:34:50;0;;;1.36;86
68117;BME280;54909;54.464;18.498;2024-01-15T09:37:56;0;;;1.41;85
68117;BME280;54909;54.464;18.498;2024-01-15T09:40:57;0;;;1.41;85
68117;BME280;54909;54.464;18.498;2024-01-15T09:43:59;0;;;1.37;86
68117;BME280;54909;54.464;18.498;2024-01-15T09:47:05;0;;;1.46;85
68117;BME280;54909;54.464;18.498;2024-01-15T09:50:08;0;;;1.51;85
68117;BME280;54909;54.464;18.498;2024-01-15T09:53:09;0;;;1.48;85
68117;BME280;54909;54.464;18.498;2024-01-15T09:56:15;0;;;1.46;85
68117;BME280;54909;54.464;18.498;2024-01-15T09:59:18;0;;;1.49;84
68117;BME280;54909;54.464;18.498;2024-01-15T10:02:20;0;;;1.56;83
68117;BME280;54909;54.464;18.498;2024-01-15T10:05:24;0;;;1.47;84
68117;BME280;54909;54.464;18.498;2024-01-15T10:08:26;0;;;1.32;84
68117;BME280;54909;54.464;18.498;2024-01-15T10:11:27;0;;;1.18;85
68117;BME280;54909;54.464;18.498;2024-01-15T10:14:34;0;;;0.99;85
68117;BME280;54909;54.464;18.498;2024-01-15T10:17:37;0;;;0.96;86
68117;BME280;54909;54.464;18.498;2024-01-15T10:20:40;0;;;1.01;86
68117;BME280;54909;54.464;18.498;2024-01-15T10:23:43;0;;;1.19;85
68117;BME280;54909;54.464;18.498;2024-01-15T10:26:45;0;;;1.47;84
68117;BME280;54909;54.464;18.498;2024-01-15T10:29:46;0;;;1.67;83
68117;BME280;54909;54.464;18.498;2024-01-15T10:32:59;0;;;1.75;81
68117;BME280;54909;54.464;18.498;2024-01-15T10:36:01;0;;;1.66;81
68117;BME280;54909;54.464;18.498;2024-01-15T10:39:03;0;;;1.59;82
68117;BME280;54909;54.464;18.498;2024-01-15T10:42:05;0;;;1.52;84
68117;BME280;54909;54.464;18.498;2024-01-15T10:45:08;0;;;1.34;86
68117;BME280;54909;54.464;18.498;2024-01-15T10:48:10;0;;;1.18;88
68117;BME280;54909;54.464;18.498;2024-01-15T10:51:12;0;;;0.97;89
68117;BME280;54909;54.464;18.498;2024-01-15T10:54:16;0;;;0.98;90
68117;BME280;54909;54.464;18.498;2024-01-15T10:57:18;0;;;1.15;88
68117;BME280;54909;54.464;18.498;2024-01-15T11:00:22;0;;;1.20;87
68117;BME280;54909;54.464;18.498;2024-01-15T11:03:25;0;;;1.25;86
68117;BME280;54909;54.464;18.498;2024-01-15T11:06:28;0;;;1.25;85
68117;BME280;54909;54.464;18.498;2024-01-15T11:09:34;0;;;1.24;85
68117;BME280;54909;54.464;18.498;2024-01-15T11:12:41;0;;;1.22;86
68117;BME280;54909;54.464;18.498;2024-01-15T11:19:03;0;;;1.24;86
68117;BME280;54909;54.464;18.498;2024-01-15T11:22:09;0;;;1.28;87
68117;BME280;54909;54.464;18.498;2024-01-15T11:25:18;0;;;1.33;86
68117;BME280;54909;54.464;18.498;2024-01-15T11:38:08;0;;;1.28;87
68117;BME280;54909;54.464;18.498;2024-01-15T11:41:15;0;;;1.58;86
68117;BME280;54909;54.464;18.498;2024-01-15T11:44:16;0;;;1.65;85
68117;BME280;54909;54.464;18.498;2024-01-15T11:50:32;0;;;1.69;82
68117;BME280;54909;54.464;18.498;2024-01-15T11:53:44;0;;;1.55;82
68117;BME280;54909;54.464;18.498;2024-01-15T11:56:46;0;;;1.54;83
68117;BME280;54909;54.464;18.498;2024-01-15T11:59:54;0;;;1.47;83
68117;BME280;54909;54.464;18.498;2024-01-15T12:02:55;0;;;1.44;83
68117;BME280;54909;54.464;18.498;2024-01-15T12:06:00;0;;;1.40;83
68117;BME280;54909;54.464;18.498;2024-01-15T12:09:10;0;;;1.48;83
68117;BME280;54909;54.464;18.498;2024-01-15T12:12:34;0;;;1.51;83
68117;BME280;54909;54.464;18.498;2024-01-15T12:15:29;0;;;1.54;83
68117;BME280;54909;54.464;18.498;2024-01-15T12:18:30;0;;;1.42;84
68117;BME280;54909;54.464;18.498;2024-01-15T12:21:32;0;;;1.42;84
68117;BME280;54909;54.464;18.498;2024-01-15T12:24:33;0;;;1.27;85
68117;BME280;54909;54.464;18.498;2024-01-15T12:27:36;0;;;1.21;86
68117;BME280;54909;54.464;18.498;2024-01-15T12:30:38;0;;;1.11;86
68117;BME280;54909;54.464;18.498;2024-01-15T12:33:40;0;;;1.20;86
68117;BME280;54909;54.464;18.498;2024-01-15T12:36:41;0;;;1.13;86
68117;BME280;54909;54.464;18.498;2024-01-15T12:39:43;0;;;1.11;87
68117;BME280;54909;54.464;18.498;2024-01-15T12:42:45;0;;;1.19;87
68117;BME280;54909;54.464;18.498;2024-01-15T12:45:50;0;;;1.22;86
68117;BME280;54909;54.464;18.498;2024-01-15T12:48:52;0;;;1.42;85
68117;BME280;54909;54.464;18.498;2024-01-15T12:51:54;0;;;1.33;86
68117;BME280;54909;54.464;18.498;2024-01-15T12:54:58;0;;;1.28;86
68117;BME280;54909;54.464;18.498;2024-01-15T12:57:59;0;;;1.67;84
68117;BME280;54909;54.464;18.498;2024-01-15T13:01:00;0;;;3.04;79
68117;BME280;54909;54.464;18.498;2024-01-15T13:04:08;0;;;3.02;78
68117;BME280;54909;54.464;18.498;2024-01-15T13:07:09;0;;;3.05;77
68117;BME280;54909;54.464;18.498;2024-01-15T13:10:12;0;;;2.53;78
68117;BME280;54909;54.464;18.498;2024-01-15T13:13:16;0;;;2.04;80
68117;BME280;54909;54.464;18.498;2024-01-15T13:16:18;0;;;1.94;80
68117;BME280;54909;54.464;18.498;2024-01-15T13:19:22;0;;;1.85;82
68117;BME280;54909;54.464;18.498;2024-01-15T13:22:26;0;;;1.75;82
68117;BME280;54909;54.464;18.498;2024-01-15T13:25:33;0;;;1.53;83
68117;BME280;54909;54.464;18.498;2024-01-15T13:28:38;0;;;1.40;85
68117;BME280;54909;54.464;18.498;2024-01-15T13:31:39;0;;;1.39;85
68117;BME280;54909;54.464;18.498;2024-01-15T13:34:41;0;;;1.26;86
68117;BME280;54909;54.464;18.498;2024-01-15T13:37:42;0;;;1.19;86
68117;BME280;54909;54.464;18.498;2024-01-15T13:40:45;0;;;1.08;87
68117;BME280;54909;54.464;18.498;2024-01-15T13:43:49;0;;;1.01;88
68117;BME280;54909;54.464;18.498;2024-01-15T13:46:51;0;;;0.82;90
68117;BME280;54909;54.464;18.498;2024-01-15T13:49:55;0;;;0.68;91
68117;BME280;54909;54.464;18.498;2024-01-15T13:52:56;0;;;0.63;92
68117;BME280;54909;54.464;18.498;2024-01-15T13:55:57;0;;;0.53;92
68117;BME280;54909;54.464;18.498;2024-01-15T13:59:04;0;;;0.43;93
68117;BME280;54909;54.464;18.498;2024-01-15T14:02:06;0;;;0.38;93
68117;BME280;54909;54.464;18.498;2024-01-15T14:05:08;0;;;0.31;94
68117;BME280;54909;54.464;18.498;2024-01-15T14:08:14;0;;;0.27;94
68117;BME280;54909;54.464;18.498;2024-01-15T14:11:15;0;;;0.29;94
68117;BME280;54909;54.464;18.498;2024-01-15T14:14:17;0;;;0.27;94
68117;BME280;54909;54.464;18.498;2024-01-15T14:17:23;0;;;0.30;94
68117;BME280;54909;54.464;18.498;2024-01-15T14:20:25;0;;;0.29;94
68117;BME280;54909;54.464;18.498;2024-01-15T14:23:26;0;;;0.28;94
68117;BME280;54909;54.464;18.498;2024-01-15T14:26:33;0;;;0.31;95
68117;BME280;54909;54.464;18.498;2024-01-15T14:29:35;0;;;0.33;95
68117;BME280;54909;54.464;18.498;2024-01-15T14:32:37;0;;;0.35;95
68117;BME280;54909;54.464;18.498;2024-01-15T14:35:43;0;;;0.36;95
68117;BME280;54909;54.464;18.498;2024-01-15T14:38:44;0;;;0.36;95
68117;BME280;54909;54.464;18.498;2024-01-15T14:41:45;0;;;0.32;94
68117;BME280;54909;54.464;18.498;2024-01-15T14:44:52;0;;;0.30;94
68117;BME280;54909;54.464;18.498;2024-01-15T14:47:53;0;;;0.30;94
68117;BME280;54909;54.464;18.498;2024-01-15T14:50:55;0;;;0.30;94
68117;BME280;54909;54.464;18.498;2024-01-15T14:54:02;0;;;0.31;92
68117;BME280;54909;54.464;18.498;2024-01-15T14:57:04;0;;;0.28;92
68117;BME280;54909;54.464;18.498;2024-01-15T15:00:07;0;;;0.25;92
68117;BME280;54909;54.464;18.498;2024-01-15T15:03:12;0;;;0.20;91
68117;BME280;54909;54.464;18.498;2024-01-15T15:06:16;0;;;0.22;91
68117;BME280;54909;54.464;18.498;2024-01-15T15:09:17;0;;;0.19;91
68117;BME280;54909;54.464;18.498;2024-01-15T15:12:21;0;;;0.24;91
68117;BME280;54909;54.464;18.498;2024-01-15T15:15:22;0;;;0.27;91
68117;BME280;54909;54.464;18.498;2024-01-15T15:18:23;0;;;0.23;91
68117;BME280;54909;54.464;18.498;2024-01-15T15:21:30;0;;;0.29;91
68117;BME280;54909;54.464;18.498;2024-01-15T15:24:32;0;;;0.30;91
68117;BME280;54909;54.464;18.498;2024-01-15T15:27:35;0;;;0.23;92
68117;BME280;54909;54.464;18.498;2024-01-15T15:30:40;0;;;0.25;91
68117;BME280;54909;54.464;18.498;2024-01-15T15:33:41;0;;;0.19;91
68117;BME280;54909;54.464;18.498;2024-01-15T15:36:43;0;;;0.18;91
68117;BME280;54909;54.464;18.498;2024-01-15T15:39:50;0;;;0.16;90
68117;BME280;54909;54.464;18.498;2024-01-15T15:42:52;0;;;0.11;89
68117;BME280;54909;54.464;18.498;2024-01-15T15:45:54;0;;;0.07;89
68117;BME280;54909;54.464;18.498;2024-01-15T15:49:00;0;;;0.06;88
68117;BME280;54909;54.464;18.498;2024-01-15T15:52:06;0;;;0.00;87
68117;BME280;54909;54.464;18.498;2024-01-15T15:55:08;0;;;-0.04;87
68117;BME280;54909;54.464;18.498;2024-01-15T15:58:10;0;;;-0.03;87
68117;BME280;54909;54.464;18.498;2024-01-15T16:01:11;0;;;-0.08;87
68117;BME280;54909;54.464;18.498;2024-01-15T16:04:12;0;;;-0.04;87
68117;BME280;54909;54.464;18.498;2024-01-15T16:07:19;0;;;-0.06;87
68117;BME280;54909;54.464;18.498;2024-01-15T16:10:20;0;;;-0.06;87
68117;BME280;54909;54.464;18.498;2024-01-15T16:13:22;0;;;-0.09;87
68117;BME280;54909;54.464;18.498;2024-01-15T16:16:29;0;;;-0.12;87
68117;BME280;54909;54.464;18.498;2024-01-15T16:19:30;0;;;-0.10;87
68117;BME280;54909;54.464;18.498;2024-01-15T16:22:32;0;;;-0.18;88
68117;BME280;54909;54.464;18.498;2024-01-15T16:25:38;0;;;-0.19;88
68117;BME280;54909;54.464;18.498;2024-01-15T16:28:40;0;;;-0.23;88
68117;BME280;54909;54.464;18.498;2024-01-15T16:31:42;0;;;-0.31;88
68117;BME280;54909;54.464;18.498;2024-01-15T16:34:48;0;;;-0.37;88
68117;BME280;54909;54.464;18.498;2024-01-15T16:37:50;0;;;-0.44;89
68117;BME280;54909;54.464;18.498;2024-01-15T16:40:51;0;;;-0.51;89
68117;BME280;54909;54.464;18.498;2024-01-15T16:43:59;0;;;-0.45;89
68117;BME280;54909;54.464;18.498;2024-01-15T16:47:00;0;;;-0.47;89
68117;BME280;54909;54.464;18.498;2024-01-15T16:50:02;0;;;-0.46;89
68117;BME280;54909;54.464;18.498;2024-01-15T16:53:08;0;;;-0.51;90
68117;BME280;54909;54.464;18.498;2024-01-15T16:56:10;0;;;-0.59;90
68117;BME280;54909;54.464;18.498;2024-01-15T16:59:12;0;;;-0.63;90
68117;BME280;54909;54.464;18.498;2024-01-15T17:02:18;0;;;-0.65;90
68117;BME280;54909;54.464;18.498;2024-01-15T17:05:23;0;;;-0.69;90
68117;BME280;54909;54.464;18.498;2024-01-15T17:08:24;0;;;-0.70;90
68117;BME280;54909;54.464;18.498;2024-01-15T17:11:28;0;;;-0.66;90
68117;BME280;54909;54.464;18.498;2024-01-15T17:14:29;0;;;-0.71;90
68117;BME280;54909;54.464;18.498;2024-01-15T17:17:30;0;;;-0.76;90
68117;BME280;54909;54.464;18.498;2024-01-15T17:20:37;0;;;-0.75;91
68117;BME280;54909;54.464;18.498;2024-01-15T17:23:46;0;;;-0.80;91
68117;BME280;54909;54.464;18.498;2024-01-15T17:26:47;0;;;-0.77;91
68117;BME280;54909;54.464;18.498;2024-01-15T17:29:49;0;;;-0.82;91
68117;BME280;54909;54.464;18.498;2024-01-15T17:32:53;0;;;-0.83;91
68117;BME280;54909;54.464;18.498;2024-01-15T17:35:56;0;;;-0.85;91
68117;BME280;54909;54.464;18.498;2024-01-15T17:38:57;0;;;-0.91;90
68117;BME280;54909;54.464;18.498;2024-01-15T17:41:59;0;;;-0.95;90
68117;BME280;54909;54.464;18.498;2024-01-15T17:45:00;0;;;-1.05;92
68117;BME280;54909;54.464;18.498;2024-01-15T17:48:06;0;;;-1.02;93
68117;BME280;54909;54.464;18.498;2024-01-15T17:51:09;0;;;-1.04;92
68117;BME280;54909;54.464;18.498;2024-01-15T17:54:11;0;;;-1.08;92
68117;BME280;54909;54.464;18.498;2024-01-15T17:57:16;0;;;-1.16;91
68117;BME280;54909;54.464;18.498;2024-01-15T18:00:18;0;;;-1.15;91
68117;BME280;54909;54.464;18.498;2024-01-15T18:03:20;0;;;-1.25;88
68117;BME280;54909;54.464;18.498;2024-01-15T18:06:26;0;;;-1.28;89
68117;BME280;54909;54.464;18.498;2024-01-15T18:09:27;0;;;-1.30;90
68117;BME280;54909;54.464;18.498;2024-01-15T18:12:28;0;;;-1.37;90
68117;BME280;54909;54.464;18.498;2024-01-15T18:15:35;0;;;-1.41;90
68117;BME280;54909;54.464;18.498;2024-01-15T18:18:37;0;;;-1.43;89
68117;BME280;54909;54.464;18.498;2024-01-15T18:21:38;0;;;-1.48;89
68117;BME280;54909;54.464;18.498;2024-01-15T18:24:45;0;;;-1.58;88
68117;BME280;54909;54.464;18.498;2024-01-15T18:27:47;0;;;-1.67;88
68117;BME280;54909;54.464;18.498;2024-01-15T18:30:48;0;;;-1.77;89
68117;BME280;54909;54.464;18.498;2024-01-15T18:34:08;0;;;-1.79;89
68117;BME280;54909;54.464;18.498;2024-01-15T18:37:13;0;;;-1.87;90
68117;BME280;54909;54.464;18.498;2024-01-15T18:40:18;0;;;-1.84;90
68117;BME280;54909;54.464;18.498;2024-01-15T18:43:20;0;;;-1.89;90
68117;BME280;54909;54.464;18.498;2024-01-15T18:46:22;0;;;-1.95;90
68117;BME280;54909;54.464;18.498;2024-01-15T18:49:28;0;;;-2.00;90
68117;BME280;54909;54.464;18.498;2024-01-15T18:52:31;0;;;-2.06;91